Time;durP1;ratioP1;P1;durP2;ratioP2;P2;SDS_P1;SDS_P2;PMS_P1;PMS_P2;Temp;Humidity;BMP_temperature;BMP_pressure;BME280_temperature;BME280_humidity;BME280_pressure;Samples;Min_cycle;Max_cycle;Signal;HPM_P1;HPM_P2
2024/01/03 04:02:15;;;;;;;10.05;2.22;;;8.50;99.90;;;;;;5103881;23;20281;-77
2024/01/03 04:04:40;;;;;;;15.77;2.03;;;8.40;99.90;;;;;;4935801;29;20067;-76
2024/01/03 04:07:06;;;;;;;17.27;2.90;;;8.50;99.90;;;;;;4936282;29;20424;-80
2024/01/03 04:09:32;;;;;;;20.35;2.50;;;8.50;99.90;;;;;;4934727;29;20035;-78
2024/01/03 04:11:57;;;;;;;21.65;3.13;;;8.60;99.90;;;;;;4935487;29;20048;-79
2024/01/03 04:14:23;;;;;;;19.10;3.25;;;8.60;99.90;;;;;;4934777;29;20058;-76
2024/01/03 04:16:49;;;;;;;28.42;3.75;;;8.70;99.90;;;;;;4934621;29;20381;-77
2024/01/03 04:19:14;;;;;;;17.58;2.95;;;8.80;99.90;;;;;;4918866;29;20128;-77
2024/01/03 04:21:40;;;;;;;26.23;3.10;;;8.90;99.90;;;;;;4934805;29;20055;-80
2024/01/03 04:24:06;;;;;;;22.33;3.88;;;9.00;99.90;;;;;;4936110;29;20507;-79
2024/01/03 04:26:31;;;;;;;29.60;3.35;;;9.10;99.90;;;;;;4935822;29;20399;-78
2024/01/03 04:28:57;;;;;;;10.60;2.35;;;9.10;99.90;;;;;;4934714;29;20048;-78
2024/01/03 04:31:23;;;;;;;23.15;3.10;;;9.20;99.90;;;;;;4937420;29;20063;-79
2024/01/03 04:33:48;;;;;;;24.10;3.90;;;9.20;99.90;;;;;;4938227;29;20039;-81
2024/01/03 04:36:14;;;;;;;25.17;3.58;;;9.20;99.90;;;;;;4938444;29;20039;-75
2024/01/03 04:38:40;;;;;;;27.65;4.20;;;9.20;99.90;;;;;;4938112;29;20043;-77
2024/01/03 04:41:05;;;;;;;21.90;3.22;;;9.30;99.90;;;;;;4938059;29;20047;-76
2024/01/03 04:43:31;;;;;;;25.30;3.75;;;9.30;99.90;;;;;;4938246;29;20031;-77
2024/01/03 04:45:56;;;;;;;24.15;3.90;;;9.40;99.90;;;;;;4938035;29;20518;-80
2024/01/03 04:48:22;;;;;;;32.10;4.55;;;9.40;99.90;;;;;;4939436;29;20038;-76
2024/01/03 04:50:48;;;;;;;26.85;3.85;;;9.40;99.90;;;;;;4937935;29;20039;-79
2024/01/03 04:53:13;;;;;;;29.38;3.42;;;9.40;99.90;;;;;;4937798;29;20103;-79
2024/01/03 04:55:39;;;;;;;28.40;4.68;;;9.40;99.90;;;;;;4938144;29;20119;-77
2024/01/03 04:58:05;;;;;;;15.82;2.90;;;9.50;99.90;;;;;;4938005;29;20476;-77
2024/01/03 05:00:31;;;;;;;32.70;4.05;;;9.60;99.90;;;;;;4937679;29;20488;-79
2024/01/03 05:02:57;;;;;;;17.85;3.08;;;9.50;99.90;;;;;;4937673;29;20047;-79
2024/01/03 05:05:22;;;;;;;22.00;4.22;;;9.50;99.90;;;;;;4937673;29;20206;-79
2024/01/03 05:07:48;;;;;;;21.75;3.22;;;9.60;99.90;;;;;;4937481;29;20105;-77
2024/01/03 05:10:14;;;;;;;14.23;2.60;;;9.50;99.90;;;;;;4937602;29;20044;-80
2024/01/03 05:12:39;;;;;;;31.65;3.53;;;9.60;99.90;;;;;;4937376;29;20070;-77
2024/01/03 05:15:06;;;;;;;17.63;3.90;;;9.60;99.90;;;;;;4937488;29;20047;-76
2024/01/03 05:17:32;;;;;;;16.63;3.03;;;9.60;99.90;;;;;;4937987;29;20066;-78
2024/01/03 05:19:57;;;;;;;23.48;2.90;;;9.80;99.90;;;;;;4937381;29;20480;-81
2024/01/03 05:22:23;;;;;;;21.67;4.15;;;9.80;99.90;;;;;;4938771;29;20055;-77
2024/01/03 05:24:49;;;;;;;19.30;3.20;;;9.80;99.90;;;;;;4938281;29;20102;-78
2024/01/03 05:27:14;;;;;;;16.88;2.60;;;9.80;99.90;;;;;;4921289;29;20048;-80
2024/01/03 05:29:40;;;;;;;19.85;2.95;;;9.80;99.90;;;;;;4937254;29;20048;-77
2024/01/03 05:32:06;;;;;;;15.48;2.90;;;9.70;99.90;;;;;;4938474;29;20047;-79
2024/01/03 05:34:31;;;;;;;13.05;2.03;;;9.70;99.90;;;;;;4938608;29;20039;-77
2024/01/03 05:36:57;;;;;;;21.70;2.63;;;9.80;99.90;;;;;;4937125;29;20404;-79
2024/01/03 05:39:23;;;;;;;17.08;3.08;;;9.70;99.90;;;;;;4937163;29;20163;-77
2024/01/03 05:41:49;;;;;;;19.25;3.38;;;9.70;99.90;;;;;;4936461;29;20448;-76
2024/01/03 05:44:15;;;;;;;17.88;2.45;;;9.80;99.90;;;;;;4937986;29;20126;-78
2024/01/03 05:46:42;;;;;;;24.60;3.50;;;9.70;99.90;;;;;;4938405;29;20047;-79
2024/01/03 05:49:07;;;;;;;22.50;3.78;;;9.70;99.90;;;;;;4938641;29;20110;-77
2024/01/03 05:51:33;;;;;;;11.93;2.55;;;9.70;99.90;;;;;;4936716;29;20126;-79
2024/01/03 05:53:59;;;;;;;15.48;2.85;;;9.70;99.90;;;;;;4936832;29;20440;-77
2024/01/03 05:56:24;;;;;;;18.23;3.10;;;9.70;99.90;;;;;;4937067;29;20051;-77
2024/01/03 05:58:51;;;;;;;20.88;2.63;;;9.70;99.90;;;;;;4937934;29;20535;-78
2024/01/03 06:01:17;;;;;;;18.92;2.47;;;9.70;99.90;;;;;;4937681;29;20106;-78
2024/01/03 06:03:43;;;;;;;23.15;2.80;;;9.70;99.90;;;;;;4936658;29;20051;-77
2024/01/03 06:06:09;;;;;;;14.93;2.28;;;9.70;99.90;;;;;;4936856;29;20046;-79
2024/01/03 06:08:35;;;;;;;11.23;1.95;;;9.70;99.90;;;;;;4920630;29;20035;-75
2024/01/03 06:11:01;;;;;;;15.38;2.28;;;9.70;99.90;;;;;;4936359;29;20118;-79
2024/01/03 06:13:27;;;;;;;8.30;1.65;;;9.70;99.90;;;;;;4936746;29;20134;-75
2024/01/03 06:15:54;;;;;;;14.80;1.90;;;9.70;99.90;;;;;;4936628;29;20051;-75
2024/01/03 06:18:21;;;;;;;12.20;1.75;;;9.70;99.90;;;;;;4936417;29;20412;-79
2024/01/03 06:20:47;;;;;;;9.60;1.40;;;9.80;99.90;;;;;;4936535;29;20047;-78
2024/01/03 06:23:13;;;;;;;10.10;2.05;;;9.80;99.90;;;;;;4937653;29;20504;-78
2024/01/03 06:25:39;;;;;;;13.23;2.70;;;9.90;99.90;;;;;;4937676;29;20115;-76
2024/01/03 06:28:05;;;;;;;14.30;2.40;;;9.90;99.90;;;;;;4936405;29;20468;-77
2024/01/03 06:30:30;;;;;;;15.25;2.53;;;9.90;99.90;;;;;;4936258;29;20086;-78
2024/01/03 06:32:56;;;;;;;16.65;2.80;;;9.80;99.90;;;;;;4920064;29;20468;-78
2024/01/03 06:35:22;;;;;;;18.58;2.88;;;9.80;99.90;;;;;;4937440;29;20039;-78
2024/01/03 06:37:47;;;;;;;16.83;2.55;;;9.80;99.90;;;;;;4935988;29;20035;-77
2024/01/03 06:40:14;;;;;;;18.30;3.30;;;9.70;99.90;;;;;;4937345;29;20043;-77
2024/01/03 06:42:40;;;;;;;18.73;3.40;;;9.70;99.90;;;;;;4937373;29;20086;-76
2024/01/03 06:45:06;;;;;;;13.90;2.15;;;9.70;99.90;;;;;;4935854;29;20447;-77
2024/01/03 06:47:32;;;;;;;22.45;2.92;;;9.70;99.90;;;;;;4937374;29;20062;-75
2024/01/03 06:49:58;;;;;;;16.52;2.75;;;9.70;99.90;;;;;;4935645;29;20047;-76
2024/01/03 06:52:23;;;;;;;20.23;2.85;;;9.60;99.90;;;;;;4936276;29;20044;-78
2024/01/03 06:54:49;;;;;;;15.25;2.30;;;9.50;99.90;;;;;;4937195;29;20452;-75
2024/01/03 06:57:15;;;;;;;20.35;3.20;;;9.40;99.90;;;;;;4935612;29;20058;-77
2024/01/03 06:59:41;;;;;;;32.15;3.13;;;9.40;99.90;;;;;;4937057;29;20122;-76
2024/01/03 07:02:07;;;;;;;19.50;4.22;;;9.30;99.90;;;;;;4935574;29;20043;-76
2024/01/03 07:04:33;;;;;;;21.10;2.92;;;9.30;99.90;;;;;;4935419;29;20563;-76
2024/01/03 07:07:01;;;;;;;25.90;2.75;;;9.20;99.90;;;;;;4935609;29;20130;-78
2024/01/03 07:09:26;;;;;;;21.13;2.90;;;9.30;99.90;;;;;;4935290;29;20043;-79
2024/01/03 07:11:53;;;;;;;23.77;3.58;;;9.30;99.90;;;;;;4935361;29;20051;-76
2024/01/03 07:14:19;;;;;;;22.52;2.85;;;9.30;99.90;;;;;;4937141;29;20044;-76
2024/01/03 07:16:44;;;;;;;15.15;2.45;;;9.40;99.90;;;;;;4935457;29;20107;-76
2024/01/03 07:19:11;;;;;;;18.58;3.38;;;9.40;99.90;;;;;;4936577;29;20467;-76
2024/01/03 07:21:36;;;;;;;15.80;2.30;;;9.40;99.90;;;;;;4936619;29;20043;-76
2024/01/03 07:24:02;;;;;;;13.88;1.40;;;9.40;99.90;;;;;;4936085;29;20054;-80
2024/01/03 07:26:28;;;;;;;9.27;2.15;;;9.50;99.90;;;;;;4936705;29;20040;-79
2024/01/03 07:28:54;;;;;;;8.63;1.00;;;9.50;99.90;;;;;;4935109;29;20058;-78
2024/01/03 07:31:19;;;;;;;7.78;1.67;;;9.40;99.90;;;;;;4919129;29;20044;-78
2024/01/03 07:33:45;;;;;;;9.25;1.55;;;9.20;99.90;;;;;;4935064;29;20090;-76
2024/01/03 07:36:10;;;;;;;16.20;1.77;;;9.10;99.90;;;;;;4901832;29;20044;-79
2024/01/03 07:38:36;;;;;;;13.63;1.90;;;9.10;99.90;;;;;;4917535;29;20047;-76
2024/01/03 07:41:02;;;;;;;14.95;2.75;;;9.00;99.90;;;;;;4917386;29;20044;-76
2024/01/03 07:43:28;;;;;;;11.73;2.33;;;9.00;99.90;;;;;;4916062;29;20048;-77
2024/01/03 07:45:53;;;;;;;14.88;2.75;;;9.00;99.90;;;;;;4915789;29;20051;-76
2024/01/03 07:48:19;;;;;;;15.10;2.72;;;9.00;99.90;;;;;;4917382;29;20099;-76
2024/01/03 07:50:45;;;;;;;16.90;2.45;;;9.00;99.90;;;;;;4917199;29;20043;-78
2024/01/03 07:53:10;;;;;;;17.50;2.63;;;8.90;99.90;;;;;;4915803;29;20050;-74
2024/01/03 07:55:36;;;;;;;10.77;2.33;;;9.00;99.90;;;;;;4915413;29;20511;-78
2024/01/03 07:58:02;;;;;;;20.27;2.70;;;9.00;99.90;;;;;;4915540;29;20040;-78
2024/01/03 08:00:31;;;;;;;12.07;2.25;;;9.00;99.90;;;;;;4917020;29;20095;-79
2024/01/03 08:02:57;;;;;;;13.70;2.38;;;9.00;99.90;;;;;;4915465;29;20040;-77
2024/01/03 08:05:23;;;;;;;15.68;2.40;;;9.00;99.90;;;;;;4919146;29;20052;-79
2024/01/03 08:07:49;;;;;;;10.23;1.92;;;9.10;99.90;;;;;;4919577;29;20048;-80
2024/01/03 08:10:15;;;;;;;13.45;2.45;;;9.10;99.90;;;;;;4920654;29;20044;-75
2024/01/03 08:12:41;;;;;;;14.55;2.22;;;9.10;99.90;;;;;;4920709;29;20504;-79
2024/01/03 08:15:07;;;;;;;10.95;1.98;;;9.20;99.90;;;;;;4920798;29;20074;-79
2024/01/03 08:17:33;;;;;;;12.40;2.33;;;9.10;99.90;;;;;;4919607;29;20074;-79
2024/01/03 08:19:58;;;;;;;16.90;2.75;;;9.10;99.90;;;;;;4919336;29;20551;-76
2024/01/03 08:22:24;;;;;;;15.35;3.00;;;9.10;99.90;;;;;;4920763;29;20052;-79
2024/01/03 08:24:50;;;;;;;11.75;2.05;;;9.10;99.90;;;;;;4920757;29;20051;-77
2024/01/03 08:27:17;;;;;;;13.27;1.70;;;9.10;99.90;;;;;;4919288;29;20043;-76
2024/01/03 08:29:43;;;;;;;15.75;2.03;;;9.10;99.90;;;;;;4920731;29;20048;-77
2024/01/03 08:32:09;;;;;;;18.08;2.78;;;9.10;99.90;;;;;;4919162;29;20048;-76
2024/01/03 08:34:35;;;;;;;12.07;1.98;;;9.10;99.90;;;;;;4920304;29;20036;-77
2024/01/03 08:37:00;;;;;;;12.55;1.95;;;9.10;99.90;;;;;;4918961;29;20043;-77
2024/01/03 08:39:26;;;;;;;16.27;1.73;;;9.10;99.90;;;;;;4920584;29;20048;-76
2024/01/03 08:41:53;;;;;;;15.07;1.95;;;9.20;99.90;;;;;;4920022;29;20044;-77
2024/01/03 08:44:22;;;;;;;13.70;2.10;;;9.10;99.90;;;;;;4919749;29;20104;-74
2024/01/03 08:46:48;;;;;;;10.70;1.83;;;9.20;99.90;;;;;;4922266;29;20127;-74
2024/01/03 08:49:14;;;;;;;12.20;1.92;;;9.20;99.90;;;;;;4924701;29;20083;-76
2024/01/03 08:51:45;;;;;;;18.73;2.35;;;9.30;99.90;;;;;;4919090;29;20072;-76
2024/01/03 08:54:11;;;;;;;11.85;1.83;;;9.30;99.90;;;;;;4920530;29;20040;-77
2024/01/03 08:56:39;;;;;;;10.65;2.42;;;9.30;99.90;;;;;;4919162;29;20047;-80
2024/01/03 08:59:05;;;;;;;12.80;2.33;;;9.30;99.90;;;;;;4918641;29;20492;-79
2024/01/03 09:01:34;;;;;;;17.27;2.50;;;9.30;99.90;;;;;;4918501;29;20051;-77
2024/01/03 09:04:00;;;;;;;17.00;2.72;;;9.40;99.90;;;;;;4918632;29;20167;-80
2024/01/03 09:06:26;;;;;;;16.83;2.67;;;9.40;99.90;;;;;;4903232;29;20051;-81
2024/01/03 09:08:54;;;;;;;15.95;2.55;;;9.40;99.90;;;;;;4919302;29;20417;-76
2024/01/03 09:11:27;;;;;;;14.13;2.20;;;9.40;99.90;;;;;;4918912;29;20040;-78
2024/01/03 09:13:53;;;;;;;24.95;3.45;;;9.40;99.90;;;;;;4902496;29;20044;-77
2024/01/03 09:16:22;;;;;;;19.55;2.85;;;9.40;99.90;;;;;;4919083;29;20051;-76
2024/01/03 09:18:49;;;;;;;16.85;2.83;;;9.40;99.90;;;;;;4920063;29;20036;-75
2024/01/03 09:21:15;;;;;;;12.40;2.20;;;9.40;99.90;;;;;;4918755;29;20477;-75
2024/01/03 09:23:41;;;;;;;11.40;2.53;;;9.40;99.90;;;;;;4920295;29;20043;-74
2024/01/03 09:26:07;;;;;;;17.77;2.03;;;9.40;99.90;;;;;;4919007;29;20050;-76
2024/01/03 09:28:37;;;;;;;8.95;1.70;;;9.50;99.90;;;;;;4919602;29;20556;-76
2024/01/03 09:31:03;;;;;;;14.07;2.17;;;9.50;99.90;;;;;;4918379;29;20083;-78
2024/01/03 09:33:28;;;;;;;14.95;2.30;;;9.60;99.90;;;;;;4902713;29;20071;-77
2024/01/03 09:35:54;;;;;;;10.05;1.90;;;9.60;99.90;;;;;;4919318;29;20453;-78
2024/01/03 09:38:20;;;;;;;14.63;2.35;;;9.60;99.90;;;;;;4918714;29;20076;-78
2024/01/03 09:40:47;;;;;;;13.32;1.90;;;9.70;99.90;;;;;;4918451;29;20051;-76
2024/01/03 09:43:12;;;;;;;11.45;1.80;;;9.60;99.90;;;;;;4918370;29;20349;-75
2024/01/03 09:45:39;;;;;;;13.77;1.83;;;9.70;99.90;;;;;;4918226;29;20051;-76
2024/01/03 09:48:05;;;;;;;10.63;1.80;;;9.70;99.90;;;;;;4919768;29;20050;-77
2024/01/03 09:50:32;;;;;;;14.48;1.98;;;9.70;99.90;;;;;;4918425;29;20404;-75
2024/01/03 09:52:58;;;;;;;15.70;2.03;;;9.70;99.90;;;;;;4919206;29;20507;-76
2024/01/03 09:55:24;;;;;;;10.30;2.03;;;9.80;99.90;;;;;;4919456;29;20044;-75
2024/01/03 09:57:54;;;;;;;10.43;2.03;;;9.80;99.90;;;;;;4919639;29;20071;-74
2024/01/03 10:00:20;;;;;;;21.58;2.88;;;9.90;99.90;;;;;;4917901;29;20046;-75
2024/01/03 10:02:47;;;;;;;17.10;2.70;;;9.90;99.90;;;;;;4919697;29;20400;-76
2024/01/03 10:05:20;;;;;;;13.50;2.20;;;10.00;99.90;;;;;;4918109;29;20066;-75
2024/01/03 10:07:46;;;;;;;15.60;2.08;;;10.20;99.90;;;;;;4918356;29;20052;-76
2024/01/03 10:10:12;;;;;;;14.60;2.30;;;10.20;99.90;;;;;;4919354;29;20135;-74
2024/01/03 10:12:37;;;;;;;17.17;3.35;;;10.40;99.90;;;;;;4919255;29;20107;-76
2024/01/03 10:15:15;;;;;;;15.90;3.13;;;10.40;99.90;;;;;;4919330;29;20048;-76
2024/01/03 10:17:43;;;;;;;18.95;3.53;;;10.40;99.90;;;;;;4918162;29;20048;-75
2024/01/03 10:20:28;;;;;;;16.58;2.55;;;10.40;99.90;;;;;;4918943;29;20036;-77
2024/01/03 10:23:06;;;;;;;10.67;1.60;;;10.40;99.90;;;;;;4917857;29;20043;-75
2024/01/03 10:25:32;;;;;;;17.58;2.20;;;10.30;99.90;;;;;;4918927;29;20280;-75
2024/01/03 10:28:00;;;;;;;16.20;2.60;;;10.30;99.90;;;;;;4916527;29;20082;-75
2024/01/03 10:30:25;;;;;;;21.10;2.90;;;10.20;99.90;;;;;;4917782;29;20044;-74
2024/01/03 10:33:00;;;;;;;19.67;2.33;;;10.10;99.90;;;;;;4918448;29;20444;-74
2024/01/03 10:35:30;;;;;;;19.00;3.40;;;10.10;99.90;;;;;;4917337;29;20051;-75
2024/01/03 10:37:59;;;;;;;23.65;3.60;;;10.00;99.90;;;;;;4918680;29;20111;-77
2024/01/03 10:40:26;;;;;;;15.38;2.67;;;9.90;99.90;;;;;;4917105;29;20040;-75
2024/01/03 10:42:52;;;;;;;18.83;2.65;;;9.80;99.90;;;;;;4918570;29;20123;-74
2024/01/03 10:45:18;;;;;;;18.05;3.45;;;9.90;99.90;;;;;;4919415;29;20055;-76
2024/01/03 10:47:44;;;;;;;18.20;4.20;;;9.80;99.90;;;;;;4918745;29;20048;-74
2024/01/03 10:50:10;;;;;;;21.00;2.83;;;9.80;99.90;;;;;;4918290;29;20095;-75
2024/01/03 10:52:37;;;;;;;15.73;2.08;;;9.80;99.90;;;;;;4916924;29;20044;-75
2024/01/03 10:55:05;;;;;;;21.00;3.17;;;9.80;99.90;;;;;;4918265;29;20047;-77
2024/01/03 10:57:35;;;;;;;9.88;2.15;;;9.90;99.90;;;;;;4918158;29;20404;-73
2024/01/03 11:00:19;;;;;;;16.38;2.45;;;9.90;99.90;;;;;;4916638;29;20044;-75
2024/01/03 11:03:05;;;;;;;18.33;2.75;;;10.00;99.90;;;;;;4916482;29;20063;-78
2024/01/03 11:06:00;;;;;;;20.88;2.88;;;10.10;99.90;;;;;;4916400;29;20047;-76
2024/01/03 11:08:35;;;;;;;27.17;4.82;;;10.10;99.90;;;;;;4916374;29;20048;-74
2024/01/03 11:11:00;;;;;;;20.23;3.75;;;10.10;99.90;;;;;;4900777;29;20455;-76
2024/01/03 11:13:29;;;;;;;21.90;3.55;;;10.20;99.90;;;;;;4916141;29;20088;-76
2024/01/03 11:15:55;;;;;;;18.80;3.10;;;10.10;99.90;;;;;;4916028;29;20042;-77
2024/01/03 11:18:40;;;;;;;28.98;4.53;;;10.10;99.90;;;;;;4916121;29;20123;-75
2024/01/03 11:21:25;;;;;;;22.90;3.60;;;10.10;99.90;;;;;;4916270;29;20389;-74
2024/01/03 11:23:50;;;;;;;;;;;10.10;99.90;;;;;;4917001;29;20051;-76
2024/01/03 11:26:16;;;;;;;24.75;4.63;;;10.10;99.90;;;;;;4916708;29;19974;-76
2024/01/03 11:28:49;;;;;;;22.88;4.05;;;10.00;99.90;;;;;;4917868;29;20092;-75
2024/01/03 11:31:35;;;;;;;27.88;3.78;;;10.10;99.90;;;;;;4917414;29;20349;-75
2024/01/03 11:34:01;;;;;;;27.88;3.72;;;10.00;99.90;;;;;;4916302;29;20051;-73
2024/01/03 11:36:45;;;;;;;24.25;3.42;;;10.00;99.90;;;;;;4916235;29;20610;-77
2024/01/03 11:39:40;;;;;;;23.33;3.10;;;9.90;99.90;;;;;;4917205;29;20099;-77
2024/01/03 11:42:06;;;;;;;20.00;3.05;;;9.80;99.90;;;;;;4916273;29;20044;-76
2024/01/03 11:44:32;;;;;;;29.15;4.65;;;9.70;99.90;;;;;;4917745;29;20122;-76
2024/01/03 11:47:03;;;;;;;16.00;2.38;;;9.60;99.90;;;;;;4916301;29;20488;-74
2024/01/03 11:49:29;;;;;;;28.08;4.13;;;9.60;99.90;;;;;;4917221;29;20404;-74
2024/01/03 11:52:01;;;;;;;24.67;3.42;;;9.50;99.90;;;;;;4915918;29;20044;-76
2024/01/03 11:54:27;;;;;;;28.33;4.55;;;9.50;99.90;;;;;;4916098;29;20119;-75
2024/01/03 11:56:56;;;;;;;12.57;2.63;;;9.40;99.90;;;;;;4917456;29;20523;-75
2024/01/03 11:59:22;;;;;;;22.55;2.80;;;9.40;99.90;;;;;;4917598;29;20515;-75
2024/01/03 12:01:58;;;;;;;23.05;2.83;;;9.40;99.90;;;;;;4916189;29;20040;-74
2024/01/03 12:04:24;;;;;;;20.65;2.95;;;9.40;99.90;;;;;;4917643;29;20052;-75
2024/01/03 12:06:55;;;;;;;21.08;3.10;;;9.40;99.90;;;;;;4916019;29;20526;-75
2024/01/03 12:09:22;;;;;;;23.02;3.63;;;9.40;99.90;;;;;;4916966;29;20040;-73
2024/01/03 12:11:48;;;;;;;19.65;3.40;;;9.40;99.90;;;;;;4915761;29;20063;-75
2024/01/03 12:14:20;;;;;;;16.70;2.50;;;9.40;99.90;;;;;;4899873;29;20516;-77
2024/01/03 12:16:50;;;;;;;20.42;4.07;;;9.40;99.90;;;;;;4917227;29;20036;-73
2024/01/03 12:19:27;;;;;;;25.65;3.90;;;9.50;99.90;;;;;;4915780;29;20099;-74
2024/01/03 12:22:00;;;;;;;19.33;3.47;;;9.50;99.90;;;;;;4915906;29;20056;-73
2024/01/03 12:24:39;;;;;;;26.75;3.25;;;9.50;99.90;;;;;;4915890;29;20051;-74
2024/01/03 12:27:05;;;;;;;22.05;2.90;;;9.50;99.90;;;;;;4916874;29;20044;-77
2024/01/03 12:29:33;;;;;;;19.20;2.35;;;9.50;99.90;;;;;;4915910;29;20051;-75
2024/01/03 12:32:12;;;;;;;23.50;3.20;;;9.50;99.90;;;;;;4915221;29;20503;-74
2024/01/03 12:34:38;;;;;;;25.55;3.42;;;9.50;99.90;;;;;;4915367;29;20044;-74
2024/01/03 12:37:04;;;;;;;17.75;4.03;;;9.50;99.90;;;;;;4917213;29;20119;-75
2024/01/03 12:39:34;;;;;;;17.48;2.75;;;9.50;99.90;;;;;;4915630;29;20072;-75
2024/01/03 12:42:09;;;;;;;19.58;3.20;;;9.50;99.90;;;;;;4916815;29;20567;-75
2024/01/03 12:44:43;;;;;;;19.08;3.50;;;9.60;99.90;;;;;;4917090;29;20123;-73
2024/01/03 12:47:09;;;;;;;15.10;2.25;;;9.60;99.90;;;;;;4915836;29;20128;-74
2024/01/03 12:49:37;;;;;;;25.17;3.70;;;9.60;99.90;;;;;;4915572;29;20055;-76
2024/01/03 12:52:03;;;;;;;16.98;2.83;;;9.60;99.90;;;;;;4917892;29;20078;-75
2024/01/03 12:54:29;;;;;;;15.98;1.95;;;9.70;99.90;;;;;;4920286;29;20091;-74
2024/01/03 12:56:55;;;;;;;15.48;2.70;;;9.70;99.90;;;;;;4920251;29;20072;-73
2024/01/03 12:59:21;;;;;;;22.00;3.75;;;9.80;99.90;;;;;;4920228;29;20087;-73
2024/01/03 13:01:47;;;;;;;18.35;2.65;;;9.80;99.90;;;;;;4918234;29;20052;-74
2024/01/03 13:04:13;;;;;;;19.90;3.65;;;9.80;99.90;;;;;;4918808;29;20048;-74
2024/01/03 13:06:42;;;;;;;18.67;2.63;;;9.80;99.90;;;;;;4918775;29;20055;-75
2024/01/03 13:09:08;;;;;;;20.70;3.17;;;9.80;99.90;;;;;;4918699;29;20136;-74
2024/01/03 13:11:34;;;;;;;13.30;2.25;;;9.80;99.90;;;;;;4919686;29;20492;-75
2024/01/03 13:14:00;;;;;;;21.02;2.60;;;9.80;99.90;;;;;;4918681;29;20119;-74
2024/01/03 13:16:26;;;;;;;15.40;2.80;;;9.80;99.90;;;;;;4919805;29;20488;-72
2024/01/03 13:18:51;;;;;;;12.40;2.50;;;9.80;99.90;;;;;;4919794;29;20039;-74
2024/01/03 13:21:17;;;;;;;14.73;2.35;;;9.80;99.90;;;;;;4918597;29;20051;-74
2024/01/03 13:23:43;;;;;;;16.83;2.50;;;9.80;99.90;;;;;;4919186;29;20055;-75
2024/01/03 13:26:10;;;;;;;21.83;3.28;;;9.80;99.90;;;;;;4919942;29;20496;-73
2024/01/03 13:28:36;;;;;;;15.45;2.00;;;9.80;99.90;;;;;;4918826;29;20044;-72
2024/01/03 13:31:02;;;;;;;16.08;2.53;;;9.80;99.90;;;;;;4919890;29;20059;-74
2024/01/03 13:33:27;;;;;;;16.52;3.33;;;9.80;99.90;;;;;;4918691;29;20047;-76
2024/01/03 13:35:53;;;;;;;14.82;2.47;;;9.80;99.90;;;;;;4920021;29;20099;-75
2024/01/03 13:38:18;;;;;;;14.23;2.53;;;9.80;99.90;;;;;;4919996;29;20043;-76
2024/01/03 13:40:46;;;;;;;19.05;3.05;;;9.70;99.90;;;;;;4918863;29;20043;-73
2024/01/03 13:43:12;;;;;;;20.88;2.20;;;9.70;99.90;;;;;;4918658;29;20084;-72
2024/01/03 13:45:39;;;;;;;17.02;2.70;;;9.70;99.90;;;;;;4918699;29;20453;-74
2024/01/03 13:48:05;;;;;;;19.35;3.30;;;9.70;99.90;;;;;;4919548;29;20100;-74
2024/01/03 13:50:31;;;;;;;19.58;4.22;;;9.70;99.90;;;;;;4918421;29;20421;-74
2024/01/03 13:52:57;;;;;;;15.15;2.53;;;9.60;99.90;;;;;;4919266;29;20127;-74
2024/01/03 13:55:23;;;;;;;17.55;1.80;;;9.60;99.90;;;;;;4917874;29;20205;-75
2024/01/03 13:57:49;;;;;;;10.88;1.88;;;9.50;99.90;;;;;;4917970;29;20044;-77
2024/01/03 14:00:17;;;;;;;9.35;1.98;;;9.40;99.90;;;;;;4919070;29;20032;-75
2024/01/03 14:02:43;;;;;;;13.35;2.63;;;9.30;99.90;;;;;;4917678;29;20080;-77
2024/01/03 14:05:11;;;;;;;15.32;2.15;;;9.30;99.90;;;;;;4917641;29;20100;-76
2024/01/03 14:07:37;;;;;;;12.40;2.03;;;9.30;99.90;;;;;;4919330;29;20120;-76
2024/01/03 14:10:07;;;;;;;11.10;2.17;;;9.30;99.90;;;;;;4918470;29;20048;-75
2024/01/03 14:12:32;;;;;;;18.05;2.63;;;9.30;99.90;;;;;;4919157;29;20079;-75
2024/01/03 14:14:58;;;;;;;13.82;2.35;;;9.20;99.90;;;;;;4917792;29;20087;-76
2024/01/03 14:17:23;;;;;;;18.83;3.45;;;9.20;99.90;;;;;;4918084;29;20067;-77
2024/01/03 14:19:49;;;;;;;15.95;3.33;;;9.20;99.90;;;;;;4917703;29;20044;-74
2024/01/03 14:22:15;;;;;;;17.92;2.53;;;9.20;99.90;;;;;;4902090;29;20051;-77
2024/01/03 14:24:40;;;;;;;20.85;2.67;;;9.20;99.90;;;;;;4917698;29;20045;-76
2024/01/03 14:27:06;;;;;;;35.80;12.73;;;9.20;99.90;;;;;;4919008;29;20096;-77
2024/01/03 14:29:32;;;;;;;15.32;3.50;;;9.20;99.90;;;;;;4917718;29;20051;-76
2024/01/03 14:31:58;;;;;;;20.25;2.80;;;9.20;99.90;;;;;;4918875;29;20044;-75
2024/01/03 14:34:24;;;;;;;19.83;3.47;;;9.10;99.90;;;;;;4917512;29;20051;-77
2024/01/03 14:37:06;;;;;;;22.48;5.97;;;9.10;99.90;;;;;;4917161;29;20072;-78
2024/01/03 14:39:39;;;;;;;14.45;2.10;;;9.10;99.90;;;;;;4917280;29;20044;-75
2024/01/03 14:42:06;;;;;;;13.25;2.78;;;9.10;99.90;;;;;;4918525;29;20048;-73
2024/01/03 14:44:33;;;;;;;14.43;2.75;;;9.10;99.90;;;;;;4918592;29;20143;-75
2024/01/03 14:46:59;;;;;;;21.08;2.75;;;9.10;99.90;;;;;;4918676;29;20048;-75
2024/01/03 14:49:25;;;;;;;26.27;2.95;;;9.10;99.90;;;;;;4917153;29;20048;-75
2024/01/03 14:51:51;;;;;;;21.20;2.58;;;9.10;99.90;;;;;;4918455;29;20047;-74
2024/01/03 14:54:17;;;;;;;17.48;2.60;;;9.20;99.90;;;;;;4917012;29;20048;-73
2024/01/03 14:56:43;;;;;;;15.70;2.53;;;9.10;99.90;;;;;;4918153;29;20043;-74
2024/01/03 14:59:10;;;;;;;19.88;3.40;;;9.10;99.90;;;;;;4916808;29;20044;-75
2024/01/03 15:01:35;;;;;;;15.73;2.20;;;9.10;99.90;;;;;;4916994;29;20050;-75
2024/01/03 15:04:05;;;;;;;16.58;2.63;;;9.10;99.90;;;;;;4916623;29;20044;-74
2024/01/03 15:06:31;;;;;;;14.70;2.22;;;9.10;99.90;;;;;;4916909;29;20040;-72
2024/01/03 15:08:57;;;;;;;15.60;2.28;;;9.10;99.90;;;;;;4918076;29;20044;-77
2024/01/03 15:11:22;;;;;;;20.15;3.10;;;9.10;99.90;;;;;;4917865;29;20061;-74
2024/01/03 15:13:48;;;;;;;20.60;2.75;;;9.10;99.90;;;;;;4934670;28;20051;-76
2024/01/03 15:16:13;;;;;;;17.83;2.50;;;9.10;99.90;;;;;;4954784;29;20043;-77
2024/01/03 15:18:39;;;;;;;11.95;2.10;;;9.10;99.90;;;;;;4956100;28;20039;-77
2024/01/03 15:21:05;;;;;;;18.42;2.40;;;9.10;99.90;;;;;;4954710;29;20118;-73
2024/01/03 15:23:31;;;;;;;18.70;3.60;;;9.00;99.90;;;;;;4955138;29;20047;-76
2024/01/03 15:26:00;;;;;;;19.83;2.97;;;9.00;99.90;;;;;;4954972;29;20051;-74
2024/01/03 15:28:29;;;;;;;12.90;2.72;;;9.00;99.90;;;;;;4955826;28;20490;-74
2024/01/03 15:30:55;;;;;;;20.50;3.15;;;9.00;99.90;;;;;;4955699;28;20046;-76
2024/01/03 15:33:21;;;;;;;19.73;3.22;;;8.90;99.90;;;;;;4955062;29;20047;-77
2024/01/03 15:35:47;;;;;;;17.90;2.60;;;8.90;99.90;;;;;;4954518;29;20118;-73
2024/01/03 15:38:12;;;;;;;14.93;2.78;;;8.90;99.90;;;;;;4954669;29;20130;-75
2024/01/03 15:40:38;;;;;;;22.02;2.15;;;8.80;99.90;;;;;;4955541;29;20471;-74
2024/01/03 15:43:04;;;;;;;18.10;2.65;;;8.80;99.90;;;;;;4955453;28;20505;-77
2024/01/03 15:45:30;;;;;;;16.40;2.83;;;8.80;99.90;;;;;;4938483;29;20134;-76
2024/01/03 15:47:56;;;;;;;22.00;3.08;;;8.80;99.90;;;;;;4956354;29;20039;-74
2024/01/03 15:50:23;;;;;;;20.38;2.75;;;8.80;99.90;;;;;;4954542;29;20050;-74
2024/01/03 15:52:50;;;;;;;22.42;2.78;;;8.80;99.90;;;;;;4954297;29;20055;-76
2024/01/03 15:55:17;;;;;;;15.80;3.03;;;8.80;99.90;;;;;;4954471;29;20386;-75
2024/01/03 15:57:45;;;;;;;16.45;2.17;;;8.80;99.90;;;;;;4955516;28;20039;-76
2024/01/03 16:00:12;;;;;;;19.15;2.60;;;8.80;99.90;;;;;;4955913;28;20039;-75
2024/01/03 16:02:38;;;;;;;15.18;3.00;;;8.80;99.90;;;;;;4954441;29;20121;-77
2024/01/03 16:05:04;;;;;;;12.82;2.63;;;8.80;99.90;;;;;;4955713;28;20511;-76
2024/01/03 16:07:30;;;;;;;19.95;3.25;;;8.80;99.90;;;;;;4955587;28;20054;-76
2024/01/03 16:09:57;;;;;;;22.60;3.33;;;8.80;99.90;;;;;;4955541;28;20126;-76
2024/01/03 16:12:23;;;;;;;20.63;3.30;;;8.80;99.90;;;;;;4954357;29;20184;-74
2024/01/03 16:14:49;;;;;;;32.92;3.65;;;8.70;99.90;;;;;;4953879;29;20517;-76
2024/01/03 16:17:17;;;;;;;18.30;3.45;;;8.80;99.90;;;;;;4954076;29;20094;-74
2024/01/03 16:19:43;;;;;;;19.92;2.90;;;8.70;99.90;;;;;;4953933;29;20047;-74
2024/01/03 16:22:10;;;;;;;21.10;3.67;;;8.70;99.90;;;;;;4954004;29;20428;-76
2024/01/03 16:24:36;;;;;;;22.33;3.65;;;8.70;99.90;;;;;;4955659;28;20047;-74
2024/01/03 16:27:04;;;;;;;21.02;3.25;;;8.70;99.90;;;;;;4940670;29;20126;-76
2024/01/03 16:29:31;;;;;;;18.73;3.90;;;8.70;99.90;;;;;;4958013;29;20046;-75
2024/01/03 16:31:58;;;;;;;24.40;4.15;;;8.70;99.90;;;;;;4957824;29;20043;-75
2024/01/03 16:34:27;;;;;;;31.10;4.75;;;8.70;99.90;;;;;;4959399;28;20051;-76
2024/01/03 16:36:57;;;;;;;23.77;4.40;;;8.70;99.90;;;;;;4957833;29;20131;-75
2024/01/03 16:39:25;;;;;;;25.55;4.43;;;8.70;99.90;;;;;;4957818;29;20085;-76
2024/01/03 16:41:51;;;;;;;27.33;3.65;;;8.70;99.90;;;;;;4941758;29;20373;-77
2024/01/03 16:44:17;;;;;;;28.40;3.60;;;8.70;99.90;;;;;;4958898;29;20050;-76
2024/01/03 16:46:43;;;;;;;34.95;3.30;;;8.60;99.90;;;;;;4957447;29;20055;-76